.
WxDataArchive / Data Records for 2007-11-21
2007-11-20 November 2007 2007-11-22

Data Records for Wednesday, 21 November 2007

Time	Temp	Chill	HIndex	Humid	Dewpt	 Wind 	HiWind	WindDir	Rain 	Barom 
-----	----	-----	------	-----	-----	------	------	-------	-----	----- 
00:00	56.9	56.9	56.9	86	52.8	1	4	22	0.00	29.831 
00:05	56.9	56.9	56.9	86	52.8	1	4	270	0.00	29.827 
00:10	56.9	56.9	56.9	87	53.1	1	5	270	0.00	29.825 
00:15	56.9	56.9	56.9	87	53.1	1	5	248	0.00	29.824 
00:20	56.9	56.9	56.9	87	53.1	1	4	248	0.00	29.822 
00:25	56.7	56.7	56.7	87	52.9	1	5	248	0.00	29.822 
00:30	56.9	56.9	56.9	87	53.1	1	6	248	0.00	29.823 
00:35	56.9	56.9	56.9	88	53.4	1	6	248	0.00	29.823 
00:40	57.0	57.0	57.0	88	53.5	1	5	248	0.00	29.824 
00:45	57.0	57.0	57.0	87	53.2	1	3	248	0.00	29.823 
00:50	57.3	57.3	57.3	87	53.5	1	4	248	0.00	29.824 
00:55	57.5	57.5	57.5	87	53.7	1	5	248	0.00	29.822 
01:00	57.6	57.6	57.6	86	53.4	1	5	248	0.00	29.819 
01:05	57.6	57.6	57.6	86	53.4	1	5	248	0.00	29.818 
01:10	57.8	57.8	57.8	86	53.6	2	5	248	0.00	29.816 
01:15	58.0	58.0	58.0	86	53.8	1	3	270	0.00	29.816 
01:20	58.0	58.0	58.0	86	53.8	1	4	248	0.00	29.813 
01:25	58.1	58.1	58.1	85	53.6	2	5	248	0.00	29.813 
01:30	58.3	58.3	58.3	85	53.8	2	5	248	0.00	29.810 
01:35	58.4	58.4	58.4	85	53.9	1	6	248	0.00	29.808 
01:40	58.4	58.4	58.4	85	53.9	2	6	248	0.00	29.807 
01:45	58.4	58.4	58.4	85	53.9	1	2	248	0.00	29.807 
01:50	58.6	58.6	58.6	85	54.1	1	3	248	0.00	29.805 
01:55	58.7	58.7	58.7	84	53.9	2	5	248	0.00	29.804 
02:00	58.7	58.7	58.7	84	53.9	1	3	248	0.00	29.803 
02:05	58.9	58.9	58.9	84	54.1	1	3	248	0.00	29.802 
02:10	58.9	58.9	58.9	84	54.1	2	4	248	0.00	29.803 
02:15	59.0	59.0	59.0	84	54.2	1	5	248	0.00	29.804 
02:20	59.2	59.2	59.2	84	54.4	2	6	248	0.00	29.804 
02:25	59.2	59.2	59.2	84	54.4	2	5	248	0.00	29.803 
02:30	59.3	59.3	59.3	84	54.5	1	3	248	0.00	29.803 
02:35	59.3	59.3	59.3	84	54.5	1	5	248	0.00	29.803 
02:40	59.5	59.5	59.5	83	54.3	3	7	248	0.00	29.802 
02:45	59.5	59.5	59.5	83	54.3	3	6	248	0.00	29.802 
02:50	59.6	59.6	59.6	83	54.4	1	4	248	0.00	29.800 
02:55	59.6	59.6	59.6	83	54.4	3	7	248	0.00	29.798 
03:00	59.8	59.8	59.8	83	54.6	2	7	225	0.00	29.799 
03:05	59.9	59.9	59.9	83	54.7	3	10	248	0.00	29.798 
03:10	60.1	60.1	60.1	83	54.9	3	6	225	0.00	29.800 
03:15	60.1	60.1	60.1	83	54.9	1	3	248	0.00	29.794 
03:20	60.1	60.1	60.1	83	54.9	3	6	248	0.00	29.797 
03:25	60.1	60.1	60.1	83	54.9	2	6	248	0.00	29.796 
03:30	60.1	60.1	60.1	83	54.9	2	6	248	0.00	29.796 
03:35	60.1	60.1	60.1	83	54.9	3	7	248	0.00	29.793 
03:40	60.1	60.1	60.1	83	54.9	3	6	248	0.00	29.790 
03:45	60.1	60.1	60.1	83	54.9	2	5	248	0.00	29.789 
03:50	60.1	60.1	60.1	83	54.9	2	8	248	0.00	29.789 
03:55	60.1	60.1	60.1	84	55.2	2	7	248	0.00	29.786 
04:00	60.1	60.1	60.1	84	55.2	2	7	248	0.00	29.783 
04:05	60.1	60.1	60.1	84	55.2	3	6	270	0.00	29.781 
04:10	60.1	60.1	60.1	84	55.2	3	7	248	0.00	29.778 
04:15	60.1	60.1	60.1	84	55.2	2	8	248	0.00	29.775 
04:20	59.9	59.9	59.9	84	55.0	2	4	248	0.00	29.775 
04:25	59.9	59.9	59.9	84	55.0	2	5	248	0.00	29.774 
04:30	59.9	59.9	59.9	84	55.0	2	9	248	0.00	29.773 
04:35	59.9	59.9	59.9	84	55.0	3	8	225	0.00	29.773 
04:40	59.9	59.9	59.9	84	55.0	2	6	248	0.00	29.771 
04:45	60.1	60.1	60.1	85	55.6	2	5	248	0.00	29.770 
04:50	60.1	60.1	60.1	85	55.6	2	4	248	0.00	29.769 
04:55	60.1	60.1	60.1	85	55.6	2	6	248	0.00	29.768 
05:00	60.1	60.1	60.1	85	55.6	2	7	248	0.00	29.768 
05:05	60.2	60.2	60.2	85	55.7	2	5	248	0.00	29.769 
05:10	60.2	60.2	60.2	85	55.7	1	6	248	0.00	29.769 
05:15	60.2	60.2	60.2	85	55.7	2	5	248	0.00	29.768 
05:20	60.2	60.2	60.2	85	55.7	2	4	225	0.00	29.768 
05:25	60.2	60.2	60.2	85	55.7	2	7	248	0.00	29.767 
05:30	60.4	60.4	60.4	85	55.9	2	6	248	0.00	29.765 
05:35	60.4	60.4	60.4	85	55.9	2	8	248	0.00	29.765 
05:40	60.4	60.4	60.4	85	55.9	2	5	270	0.00	29.767 
05:45	60.4	60.4	60.4	85	55.9	2	6	248	0.00	29.765 
05:50	60.5	60.5	60.5	85	56.0	3	10	248	0.00	29.764 
05:55	60.5	60.5	60.5	85	56.0	2	7	248	0.00	29.765 
06:00	60.5	60.5	60.5	85	56.0	2	6	248	0.00	29.763 
06:05	60.7	60.7	60.7	85	56.2	3	6	248	0.00	29.765 
06:10	60.7	60.7	60.7	85	56.2	2	6	270	0.00	29.764 
06:15	60.7	60.7	60.7	85	56.2	2	6	248	0.00	29.761 
06:20	60.7	60.7	60.7	85	56.2	2	7	248	0.00	29.760 
06:25	60.7	60.7	60.7	85	56.2	3	9	248	0.00	29.760 
06:30	60.7	60.7	60.7	85	56.2	3	7	248	0.00	29.762 
06:35	60.7	60.7	60.7	85	56.2	2	7	248	0.00	29.763 
06:40	60.7	60.7	60.7	85	56.2	3	7	248	0.00	29.763 
06:45	60.5	60.5	60.5	86	56.3	3	9	270	0.00	29.763 
06:50	60.5	60.5	60.5	86	56.3	3	6	248	0.00	29.763 
06:55	60.5	60.5	60.5	87	56.6	2	6	248	0.00	29.763 
07:00	60.4	60.4	60.4	88	56.8	2	5	248	0.00	29.763 
07:05	60.1	60.1	60.1	89	56.8	2	6	248	0.00	29.763 
07:10	59.9	59.9	59.9	89	56.6	2	6	248	0.00	29.763 
07:15	59.9	59.9	59.9	90	57.0	2	6	248	0.00	29.765 
07:20	59.8	59.8	59.8	90	56.9	2	5	248	0.00	29.766 
07:25	59.8	59.8	59.8	91	57.2	2	4	248	0.00	29.763 
07:30	59.6	59.6	59.6	91	57.0	1	5	248	0.00	29.763 
07:35	59.5	59.5	59.5	92	57.2	1	3	248	0.00	29.767 
07:40	59.5	59.5	59.5	92	57.2	1	4	248	0.00	29.766 
07:45	59.3	59.3	59.3	92	57.0	1	4	248	0.00	29.768 
07:50	59.3	59.3	59.3	92	57.0	0	2	248	0.00	29.763 
07:55	59.3	59.3	59.3	93	57.3	0	2	248	0.00	29.762 
08:00	59.3	59.3	59.3	93	57.3	0	3	248	0.00	29.762 
08:05	59.3	59.3	59.3	93	57.3	1	4	270	0.00	29.764 
08:10	59.5	59.5	59.5	92	57.2	1	3	248	0.00	29.768 
08:15	59.5	59.5	59.5	92	57.2	1	3	248	0.00	29.769 
08:20	59.6	59.6	59.6	92	57.3	1	7	248	0.01	29.772 
08:25	59.8	59.8	59.8	92	57.5	2	6	248	0.00	29.773 
08:30	59.8	59.8	59.8	92	57.5	1	5	248	0.00	29.771 
08:35	59.8	59.8	59.8	92	57.5	2	5	248	0.00	29.771 
08:40	59.8	59.8	59.8	93	57.8	2	4	248	0.00	29.773 
08:45	58.3	58.3	58.3	91	55.7	1	2	338	0.00	29.776 
08:50	57.3	57.3	57.3	91	54.7	0	2	338	0.01	29.776 
08:55	56.9	56.9	56.9	92	54.6	0	1	292	0.01	29.778 
09:00	56.5	56.5	56.5	92	54.2	0	2	338	0.01	29.779 
09:05	56.2	56.2	56.2	93	54.2	0	1	338	0.00	29.781 
09:10	56.0	56.0	56.0	93	54.0	0	2	338	0.01	29.782 
09:15	55.9	55.9	55.9	94	54.2	0	1	338	0.00	29.781 
09:20	55.7	55.7	55.7	94	54.0	0	1	338	0.00	29.779 
09:25	55.6	55.6	55.6	94	53.9	0	1	338	0.00	29.777 
09:30	55.6	55.6	55.6	95	54.2	0	1	338	0.01	29.778 
09:35	55.6	55.6	55.6	95	54.2	0	1	338	0.00	29.776 
09:40	55.6	55.6	55.6	95	54.2	0	1	338	0.01	29.776 
09:45	55.6	55.6	55.6	95	54.2	0	1	338	0.01	29.775 
09:50	55.4	55.4	55.4	95	54.0	0	2	338	0.00	29.776 
09:55	55.1	55.1	55.1	95	53.7	1	4	338	0.00	29.778 
10:00	53.1	53.1	53.1	93	51.1	1	3	22	0.01	29.778 
10:05	51.9	51.9	51.9	93	49.9	1	2	22	0.01	29.778 
10:10	51.3	51.3	51.3	93	49.3	1	5	112	0.01	29.776 
10:15	50.7	50.7	50.7	93	48.7	1	3	45	0.00	29.779 
10:20	49.9	49.9	49.9	93	48.0	1	2	45	0.00	29.782 
10:25	49.6	49.6	49.6	93	47.7	1	4	112	0.00	29.780 
10:30	49.5	49.5	49.5	94	47.8	0	2	112	0.00	29.782 
10:35	49.1	49.1	49.1	94	47.4	1	4	68	0.00	29.781 
10:40	48.8	48.8	48.8	93	46.9	0	2	45	0.00	29.783 
10:45	48.3	48.3	48.3	93	46.4	1	4	45	0.01	29.783 
10:50	48.2	48.2	48.2	94	46.6	0	2	22	0.01	29.785 
10:55	48.0	48.0	48.0	94	46.4	1	4	45	0.01	29.788 
11:00	47.7	47.7	47.7	94	46.1	1	3	22	0.01	29.795 
11:05	47.3	47.3	47.3	94	45.7	1	5	315	0.02	29.793 
11:10	46.7	46.7	46.7	94	45.1	1	4	338	0.07	29.795 
11:15	46.4	46.4	46.4	94	44.8	1	3	22	0.05	29.803 
11:20	46.1	46.1	46.1	94	44.5	1	2	22	0.07	29.805 
11:25	46.0	46.0	46.0	94	44.4	1	3	45	0.06	29.805 
11:30	45.8	45.8	45.8	95	44.4	1	3	45	0.04	29.805 
11:35	45.8	45.8	45.8	95	44.4	1	6	22	0.02	29.800 
11:40	45.7	45.7	45.7	95	44.4	2	7	112	0.03	29.790 
11:45	45.7	45.7	45.7	95	44.4	1	4	68	0.01	29.787 
11:50	45.7	45.7	45.7	95	44.4	1	5	45	0.00	29.778 
11:55	45.7	45.7	45.7	95	44.4	1	5	135	0.00	29.777 
12:00	45.7	45.7	45.7	95	44.4	1	4	112	0.01	29.781 
12:05	45.5	45.5	45.5	95	44.2	1	3	45	0.01	29.783 
12:10	45.5	45.5	45.5	95	44.2	1	4	90	0.00	29.785 
12:15	45.4	45.4	45.4	95	44.1	1	3	90	0.02	29.774 
12:20	45.4	45.4	45.4	95	44.1	1	3	112	0.03	29.760 
12:25	45.5	45.5	45.5	96	44.4	1	3	45	0.01	29.759 
12:30	45.5	45.5	45.5	96	44.4	1	4	22	0.00	29.757 
12:35	45.7	45.7	45.7	96	44.6	1	6	90	0.01	29.763 
12:40	45.4	45.4	45.4	95	44.1	1	5	90	0.00	29.759 
12:45	45.4	45.4	45.4	96	44.3	1	3	112	0.01	29.756 
12:50	45.4	45.4	45.4	95	44.1	2	4	90	0.01	29.754 
12:55	45.2	45.2	45.2	96	44.1	2	10	112	0.01	29.747 
13:00	45.2	45.2	45.2	95	43.9	2	5	90	0.03	29.749 
13:05	45.2	45.2	45.2	96	44.1	1	4	90	0.02	29.753 
13:10	45.1	45.1	45.1	95	43.8	1	3	45	0.03	29.759 
13:15	44.8	42.9	44.8	95	43.5	4	13	90	0.02	29.743 
13:20	44.8	44.8	44.8	95	43.5	2	7	112	0.01	29.760 
13:25	44.8	44.8	44.8	95	43.5	0	3	90	0.03	29.766 
13:30	44.8	44.8	44.8	95	43.5	0	2	90	0.02	29.788 
13:35	44.6	44.6	44.6	95	43.3	1	4	22	0.03	29.798 
13:40	44.5	44.5	44.5	96	43.4	2	10	22	0.03	29.771 
13:45	44.5	42.5	44.5	96	43.4	4	12	90	0.00	29.754 
13:50	44.5	44.5	44.5	95	43.2	2	10	45	0.01	29.758 
13:55	44.5	44.5	44.5	95	43.2	3	10	112	0.01	29.753 
14:00	44.6	44.6	44.6	96	43.5	2	6	112	0.00	29.756 
14:05	44.6	44.6	44.6	96	43.5	0	3	68	0.00	29.757 
14:10	44.6	44.6	44.6	96	43.5	1	3	45	0.02	29.766 
14:15	44.3	44.3	44.3	96	43.2	1	4	90	0.00	29.756 
14:20	44.1	44.1	44.1	95	42.8	3	10	112	0.01	29.758 
14:25	43.9	43.9	43.9	95	42.6	2	6	112	0.04	29.756 
14:30	43.8	43.8	43.8	95	42.5	2	6	90	0.02	29.754 
14:35	43.8	43.8	43.8	95	42.5	2	7	112	0.01	29.744 
14:40	43.8	43.8	43.8	95	42.5	2	5	112	0.01	29.748 
14:45	43.6	43.6	43.6	95	42.3	1	5	68	0.01	29.745 
14:50	43.6	43.6	43.6	95	42.3	1	5	22	0.00	29.755 
14:55	43.6	43.6	43.6	95	42.3	2	6	45	0.01	29.749 
15:00	43.6	43.6	43.6	95	42.3	1	3	135	0.03	29.767 
15:05	43.5	43.5	43.5	95	42.2	2	9	112	0.02	29.763 
15:10	43.6	43.6	43.6	95	42.3	2	4	112	0.01	29.756 
15:15	43.6	43.6	43.6	95	42.3	1	4	45	0.01	29.755 
15:20	43.6	43.6	43.6	95	42.3	1	3	90	0.00	29.765 
15:25	43.6	43.6	43.6	95	42.3	1	5	112	0.00	29.763 
15:30	43.6	43.6	43.6	95	42.3	1	5	90	0.01	29.758 
15:35	43.8	43.8	43.8	96	42.7	1	3	90	0.01	29.768 
15:40	43.6	43.6	43.6	95	42.3	1	3	68	0.00	29.772 
15:45	43.6	43.6	43.6	95	42.3	2	6	90	0.01	29.771 
15:50	43.6	43.6	43.6	96	42.5	1	3	90	0.01	29.765 
15:55	43.5	43.5	43.5	95	42.2	2	7	45	0.02	29.757 
16:00	43.5	43.5	43.5	95	42.2	1	4	90	0.00	29.757 
16:05	43.3	43.3	43.3	95	42.0	2	9	68	0.00	29.766 
16:10	43.3	43.3	43.3	95	42.0	2	7	90	0.01	29.757 
16:15	43.3	43.3	43.3	95	42.0	1	6	45	0.00	29.764 
16:20	43.3	43.3	43.3	95	42.0	1	4	45	0.01	29.784 
16:25	43.3	43.3	43.3	95	42.0	1	3	22	0.00	29.779 
16:30	43.3	43.3	43.3	95	42.0	1	5	68	0.00	29.768 
16:35	43.3	43.3	43.3	95	42.0	1	4	22	0.00	29.764 
16:40	43.3	43.3	43.3	95	42.0	1	4	22	0.00	29.772 
16:45	43.2	43.2	43.2	95	41.9	1	5	112	0.00	29.773 
16:50	43.2	43.2	43.2	95	41.9	1	5	68	0.00	29.768 
16:55	43.1	43.1	43.1	95	41.8	2	6	112	0.00	29.754 
17:00	42.9	42.9	42.9	95	41.6	2	6	68	0.00	29.742 
17:05	42.9	42.9	42.9	94	41.3	3	9	112	0.00	29.726 
17:10	42.8	40.6	42.8	94	41.2	4	12	112	0.00	29.728 
17:15	42.8	40.6	42.8	94	41.2	4	11	112	0.00	29.744 
17:20	42.8	40.6	42.8	93	40.9	4	11	112	0.00	29.756 
17:25	42.8	40.6	42.8	93	40.9	4	11	90	0.00	29.764 
17:30	42.9	40.7	42.9	93	41.0	4	12	90	0.00	29.769 
17:35	42.9	42.9	42.9	93	41.0	3	12	112	0.01	29.764 
17:40	42.8	42.8	42.8	93	40.9	3	7	112	0.00	29.763 
17:45	42.8	42.8	42.8	93	40.9	2	5	90	0.00	29.767 
17:50	42.8	42.8	42.8	93	40.9	2	8	90	0.00	29.759 
17:55	42.8	42.8	42.8	93	40.9	3	6	112	0.00	29.761 
18:00	42.8	42.8	42.8	93	40.9	2	7	45	0.01	29.771 
18:05	42.8	42.8	42.8	93	40.9	1	5	112	0.00	29.775 
18:10	42.8	42.8	42.8	93	40.9	2	9	90	0.00	29.773 
18:15	42.6	42.6	42.6	93	40.7	3	12	90	0.01	29.759 
18:20	42.6	40.3	42.6	93	40.7	4	11	112	0.00	29.756 
18:25	42.6	39.5	42.6	93	40.7	5	10	90	0.00	29.747 
18:30	42.6	42.6	42.6	93	40.7	2	5	90	0.01	29.757 
18:35	42.6	42.6	42.6	94	41.0	3	8	90	0.00	29.749 
18:40	42.6	40.3	42.6	94	41.0	4	9	90	0.00	29.745 
18:45	42.5	42.5	42.5	94	40.9	3	9	112	0.01	29.752 
18:50	42.5	42.5	42.5	94	40.9	2	9	68	0.01	29.758 
18:55	42.5	42.5	42.5	94	40.9	3	11	90	0.01	29.758 
19:00	42.5	40.2	42.5	94	40.9	4	8	90	0.01	29.748 
19:05	42.5	39.4	42.5	94	40.9	5	9	90	0.01	29.746 
19:10	42.5	42.5	42.5	94	40.9	3	7	90	0.00	29.744 
19:15	42.5	42.5	42.5	94	40.9	3	11	90	0.01	29.727 
19:20	42.3	39.2	42.3	94	40.7	5	11	112	0.01	29.729 
19:25	42.3	40.0	42.3	95	41.0	4	9	112	0.01	29.726 
19:30	42.3	40.0	42.3	95	41.0	4	10	112	0.01	29.727 
19:35	42.3	42.3	42.3	95	41.0	3	9	90	0.00	29.717 
19:40	42.2	39.9	42.2	95	40.9	4	10	90	0.01	29.725 
19:45	42.2	42.2	42.2	95	40.9	1	11	90	0.01	29.742 
19:50	42.2	42.2	42.2	95	40.9	2	8	45	0.02	29.732 
19:55	42.2	42.2	42.2	95	40.9	1	6	90	0.01	29.744 
20:00	42.2	42.2	42.2	95	40.9	2	5	292	0.01	29.748 
20:05	42.2	42.2	42.2	95	40.9	3	12	22	0.02	29.731 
20:10	42.2	42.2	42.2	95	40.9	1	9	112	0.01	29.746 
20:15	42.1	42.1	42.1	95	40.8	2	4	90	0.01	29.735 
20:20	42.1	42.1	42.1	95	40.8	2	6	112	0.01	29.732 
20:25	42.1	42.1	42.1	95	40.8	2	6	90	0.02	29.733 
20:30	41.9	41.9	41.9	95	40.6	1	3	45	0.01	29.740 
20:35	41.9	41.9	41.9	95	40.6	2	7	68	0.00	29.733 
20:40	41.9	41.9	41.9	95	40.6	1	4	112	0.02	29.733 
20:45	41.9	41.9	41.9	95	40.6	1	3	135	0.03	29.746 
20:50	41.9	41.9	41.9	95	40.6	1	4	90	0.01	29.752 
20:55	41.9	41.9	41.9	95	40.6	1	3	90	0.01	29.759 
21:00	41.9	41.9	41.9	95	40.6	0	2	68	0.01	29.765 
21:05	41.9	41.9	41.9	95	40.6	0	1	68	0.01	29.757 
21:10	41.8	41.8	41.8	95	40.5	1	3	68	0.01	29.746 
21:15	41.8	41.8	41.8	96	40.7	3	7	112	0.01	29.728 
21:20	41.6	37.7	41.6	95	40.3	6	13	112	0.02	29.706 
21:25	41.6	38.4	41.6	95	40.3	5	12	112	0.01	29.687 
21:30	41.6	38.4	41.6	95	40.3	5	10	112	0.01	29.697 
21:35	41.6	39.2	41.6	95	40.3	4	11	112	0.01	29.705 
21:40	41.6	41.6	41.6	95	40.3	3	12	112	0.01	29.705 
21:45	41.6	41.6	41.6	95	40.3	2	10	112	0.01	29.694 
21:50	41.6	41.6	41.6	95	40.3	2	9	45	0.01	29.713 
21:55	41.6	41.6	41.6	96	40.5	3	9	112	0.00	29.700 
22:00	41.6	41.6	41.6	96	40.5	3	8	112	0.00	29.691 
22:05	41.5	41.5	41.5	95	40.2	3	10	112	0.00	29.692 
22:10	41.5	39.1	41.5	95	40.2	4	10	90	0.00	29.689 
22:15	41.5	41.5	41.5	95	40.2	3	6	112	0.00	29.690 
22:20	41.5	41.5	41.5	95	40.2	2	10	22	0.00	29.694 
22:25	41.3	41.3	41.3	95	40.0	3	7	90	0.00	29.698 
22:30	41.3	41.3	41.3	95	40.0	3	10	90	0.00	29.692 
22:35	41.3	41.3	41.3	95	40.0	2	6	22	0.00	29.690 
22:40	41.3	41.3	41.3	95	40.0	2	12	90	0.00	29.690 
22:45	41.5	41.5	41.5	95	40.2	2	7	135	0.00	29.688 
22:50	41.5	41.5	41.5	95	40.2	3	6	112	0.01	29.695 
22:55	41.3	41.3	41.3	95	40.0	3	7	112	0.00	29.704 
23:00	41.3	41.3	41.3	95	40.0	1	6	0	0.00	29.708 
23:05	41.5	41.5	41.5	95	40.2	2	5	68	0.00	29.708 
23:10	41.3	41.3	41.3	95	40.0	1	5	45	0.00	29.710 
23:15	41.3	41.3	41.3	95	40.0	2	6	45	0.00	29.705 
23:20	41.3	41.3	41.3	95	40.0	1	4	22	0.00	29.708 
23:25	41.3	41.3	41.3	95	40.0	2	5	45	0.00	29.696 
23:30	41.3	41.3	41.3	95	40.0	2	6	68	0.00	29.695 
23:35	41.3	41.3	41.3	94	39.7	2	5	90	0.00	29.696 
23:40	41.3	41.3	41.3	94	39.7	1	5	45	0.00	29.706 
23:45	41.3	41.3	41.3	95	40.0	1	6	45	0.00	29.708 
23:50	41.2	41.2	41.2	95	39.9	1	5	45	0.00	29.689 
23:55	41.1	41.1	41.1	95	39.8	2	6	90	0.01	29.680 

CoCoRaHS
IN-AL-39
A2 Web Hosting
Creative Commons License
GoDaddy
Look for:

loaded 2017-10-20 19:35:22 • last modified 2010-11-18 10:43:29
Privacy PolicyDisclaimer
• wx.awcolley.com is powered by PmWiki v.2002016 •
• all content (unless otherwise noted) © 2017 A W Colley